createdAt,value
2023-05-05T00:00:00.502Z,100507.78
2023-05-05T00:02:27.250Z,100520.09
2023-05-05T00:04:54.142Z,100539.03
2023-05-05T00:07:20.983Z,100547.97
2023-05-05T00:09:47.840Z,100541.78
2023-05-05T00:36:26.797Z,100591.75
2023-05-05T00:38:53.623Z,100608.81
2023-05-05T00:41:20.533Z,100622.84
2023-05-05T00:43:47.428Z,100625.25
2023-05-05T00:46:23.378Z,100636.69
2023-05-05T00:48:51.091Z,100619.44
2023-05-05T00:51:18.293Z,100631.38
2023-05-05T00:53:45.333Z,100612.84
2023-05-05T00:56:14.664Z,100620.97
2023-05-05T00:58:42.516Z,100637.31
2023-05-05T01:01:10.325Z,100648.66
2023-05-05T01:03:39.156Z,100640.06
2023-05-05T01:06:17.028Z,100642.00
2023-05-05T01:08:47.001Z,100673.91
2023-05-05T01:11:27.305Z,100685.00
2023-05-05T01:14:24.745Z,100685.16
2023-05-05T01:16:59.023Z,100681.66
2023-05-05T01:19:37.857Z,100699.25
2023-05-05T01:22:07.759Z,100714.66
2023-05-05T01:24:53.089Z,100765.41
2023-05-05T01:27:38.485Z,100774.78
2023-05-05T01:30:43.098Z,100754.06
2023-05-05T01:33:11.730Z,100783.16
2023-05-05T01:35:42.812Z,100822.16
2023-05-05T01:49:47.519Z,100918.19
2023-05-05T01:52:18.021Z,100914.31
2023-05-05T01:54:45.929Z,100906.97
2023-05-05T01:57:14.178Z,100948.47
2023-05-05T01:59:40.922Z,100938.41
2023-05-05T02:02:09.612Z,100928.13
2023-05-05T02:04:37.820Z,100965.38
2023-05-05T02:07:05.141Z,100957.69
2023-05-05T02:09:32.876Z,100973.78
2023-05-05T02:12:00.572Z,101004.47
2023-05-05T02:14:29.137Z,101024.59
2023-05-05T02:16:57.006Z,101049.88
2023-05-05T02:19:31.118Z,101070.94
2023-05-05T02:21:58.090Z,101062.34
2023-05-05T02:24:25.670Z,101079.69
2023-05-05T02:26:53.559Z,101002.78
2023-05-05T02:29:23.083Z,101026.75
2023-05-05T02:31:52.983Z,101029.28
2023-05-05T02:34:26.863Z,101011.00
2023-05-05T02:36:57.616Z,100985.69
2023-05-05T02:39:46.562Z,100976.97
2023-05-05T02:42:16.695Z,100950.84
2023-05-05T02:44:45.339Z,100923.66
2023-05-05T02:47:11.946Z,100885.72
2023-05-05T02:49:38.659Z,100877.72
2023-05-05T02:52:05.419Z,100875.88
2023-05-05T02:54:33.281Z,100887.00
2023-05-05T02:57:00.577Z,100869.44
2023-05-05T02:59:39.301Z,100878.19
2023-05-05T03:02:11.560Z,100880.88
2023-05-05T03:04:50.070Z,100843.75
2023-05-05T03:07:23.755Z,100848.16
2023-05-05T03:09:58.370Z,100885.31
2023-05-05T03:12:28.628Z,100900.81
2023-05-05T03:14:55.976Z,100898.22
2023-05-05T03:17:23.007Z,100863.91
2023-05-05T03:19:50.761Z,100909.50
2023-05-05T03:22:17.625Z,100920.06
2023-05-05T03:24:50.127Z,100910.44
2023-05-05T03:27:16.841Z,100891.41
2023-05-05T03:29:43.539Z,100903.44
2023-05-05T03:32:10.351Z,100901.69
2023-05-05T03:34:37.956Z,100875.00
2023-05-05T03:37:04.690Z,100908.75
2023-05-05T03:39:31.830Z,100892.56
2023-05-05T03:41:58.521Z,100889.13
2023-05-05T03:44:25.360Z,100895.34
2023-05-05T03:46:52.094Z,100890.84
2023-05-05T03:49:18.725Z,100899.25
2023-05-05T03:51:45.371Z,100890.06
2023-05-05T03:54:12.077Z,100886.91
2023-05-05T03:56:38.960Z,100909.16
2023-05-05T03:59:05.775Z,100938.59
2023-05-05T04:01:32.557Z,100928.41
2023-05-05T04:03:59.350Z,100895.69
2023-05-05T04:06:26.588Z,100928.38
2023-05-05T04:08:53.616Z,100937.34
2023-05-05T04:11:21.444Z,100934.06
2023-05-05T04:13:50.010Z,100883.00
2023-05-05T04:16:16.810Z,100806.69
2023-05-05T04:18:43.626Z,100774.34
2023-05-05T04:21:10.462Z,100715.22
2023-05-05T04:23:37.114Z,100706.31
2023-05-05T04:26:03.806Z,100681.22
2023-05-05T04:28:30.477Z,100656.84
2023-05-05T04:30:57.305Z,100676.66
2023-05-05T04:33:23.999Z,100660.16
2023-05-05T04:35:50.703Z,100665.13
2023-05-05T04:38:17.431Z,100678.75
2023-05-05T04:40:44.354Z,100686.66
2023-05-05T04:43:11.085Z,100678.78
2023-05-05T04:45:37.688Z,100694.34
2023-05-05T04:48:05.368Z,100691.84
2023-05-05T04:50:32.860Z,100693.44
2023-05-05T04:52:59.513Z,100707.16
2023-05-05T04:55:26.209Z,100694.25
2023-05-05T04:57:52.867Z,100701.03
2023-05-05T05:00:19.648Z,100702.59
2023-05-05T05:02:46.426Z,100749.59
2023-05-05T05:05:13.198Z,100774.72
2023-05-05T05:07:40.345Z,100797.72
2023-05-05T05:10:07.654Z,100804.81
2023-05-05T05:12:34.576Z,100795.38
2023-05-05T05:15:01.316Z,100842.84
2023-05-05T05:17:30.098Z,100834.41
2023-05-05T05:19:59.305Z,100812.66
2023-05-05T05:22:25.913Z,100837.69
2023-05-05T05:24:52.650Z,100847.22
2023-05-05T05:27:19.289Z,100868.03
2023-05-05T05:29:45.913Z,100866.03
2023-05-05T05:32:12.730Z,100887.91
2023-05-05T05:34:39.540Z,100888.03
2023-05-05T05:37:06.335Z,100881.84
2023-05-05T05:39:33.064Z,100871.63
2023-05-05T05:41:59.756Z,100904.75
2023-05-05T05:44:26.514Z,100901.41
2023-05-05T05:46:53.225Z,100904.34
2023-05-05T05:49:19.932Z,100909.22
2023-05-05T05:51:46.625Z,100872.00
2023-05-05T05:54:13.259Z,100889.69
2023-05-05T05:56:40.039Z,100886.59
2023-05-05T05:59:10.170Z,100855.91
2023-05-05T06:01:37.161Z,100863.97
2023-05-05T06:04:03.970Z,100871.75
2023-05-05T06:06:31.671Z,100876.13
2023-05-05T06:08:58.310Z,100842.56
2023-05-05T06:11:24.980Z,100841.47
2023-05-05T06:13:51.643Z,100862.69
2023-05-05T06:16:18.504Z,100803.97
2023-05-05T06:18:45.242Z,100776.31
2023-05-05T06:21:13.383Z,100770.00
2023-05-05T06:23:40.126Z,100741.91
2023-05-05T06:26:06.822Z,100723.97
2023-05-05T06:28:33.578Z,100751.44
2023-05-05T06:31:00.276Z,100733.59
2023-05-05T06:33:27.010Z,100728.22
2023-05-05T06:35:54.468Z,100751.03
2023-05-05T06:38:21.266Z,100718.22
2023-05-05T06:40:49.763Z,100600.75
2023-05-05T06:43:17.183Z,100669.41
2023-05-05T06:45:44.019Z,100694.56
2023-05-05T06:48:10.955Z,100666.59
2023-05-05T06:50:37.615Z,100642.50
2023-05-05T06:53:04.315Z,100561.28
2023-05-05T06:55:31.021Z,100525.75
2023-05-05T06:57:57.708Z,100525.25
2023-05-05T07:00:24.546Z,100478.97
2023-05-05T07:02:51.244Z,100461.34
2023-05-05T07:05:18.550Z,100384.78
2023-05-05T07:07:55.325Z,100375.84
2023-05-05T07:10:23.447Z,100385.44
2023-05-05T07:12:50.668Z,100344.09
2023-05-05T07:15:27.414Z,100329.59
2023-05-05T07:17:55.141Z,100310.91
2023-05-05T07:20:22.036Z,100327.34
2023-05-05T07:22:48.716Z,100306.44
2023-05-05T07:25:15.520Z,100329.66
2023-05-05T07:27:42.224Z,100344.34
2023-05-05T07:30:13.107Z,100320.41
2023-05-05T07:32:42.211Z,100287.69
2023-05-05T07:35:09.533Z,100301.81
2023-05-05T07:37:36.490Z,100273.84
2023-05-05T07:40:03.437Z,100222.84
2023-05-05T07:42:30.191Z,100201.59
2023-05-05T07:45:02.637Z,100203.91
2023-05-05T07:47:29.812Z,100209.44
2023-05-05T07:49:57.030Z,100191.13
2023-05-05T07:52:37.351Z,100208.34
2023-05-05T07:55:10.772Z,100266.63
2023-05-05T07:57:37.711Z,100227.94
2023-05-05T08:00:05.113Z,100227.16
2023-05-05T08:02:31.912Z,100228.03
2023-05-05T08:04:58.694Z,100175.09
2023-05-05T08:07:25.630Z,100180.50
2023-05-05T08:09:52.330Z,100172.06
2023-05-05T08:12:19.573Z,100163.16
2023-05-05T08:14:46.414Z,100162.50
2023-05-05T08:17:13.213Z,100178.56
2023-05-05T08:19:40.048Z,100184.09
2023-05-05T08:22:06.679Z,100162.47
2023-05-05T08:24:33.428Z,100154.09
2023-05-05T08:27:00.070Z,100104.09
2023-05-05T08:29:26.933Z,100087.47
2023-05-05T08:31:53.926Z,100096.81
2023-05-05T08:34:20.767Z,100059.22
2023-05-05T08:36:51.719Z,100095.16
2023-05-05T08:39:18.435Z,100093.03
2023-05-05T08:41:45.193Z,100073.63
2023-05-05T08:44:12.167Z,100099.13
2023-05-05T08:46:39.842Z,100115.41
2023-05-05T08:49:09.143Z,100109.41
2023-05-05T08:51:42.500Z,100116.47
2023-05-05T08:54:13.458Z,100089.94
2023-05-05T08:56:43.990Z,100065.50
2023-05-05T08:59:11.998Z,100070.47
2023-05-05T09:01:38.854Z,100069.03
2023-05-05T09:04:07.785Z,100055.28
2023-05-05T09:06:35.774Z,100068.81
2023-05-05T09:09:02.625Z,100057.03
2023-05-05T09:11:29.453Z,100071.59
2023-05-05T09:13:56.426Z,100039.03
2023-05-05T09:16:23.214Z,100044.97
2023-05-05T09:18:49.998Z,100033.50
2023-05-05T09:21:24.875Z,100037.44
2023-05-05T09:24:09.066Z,100027.75
2023-05-05T09:26:37.866Z,100016.94
2023-05-05T09:29:05.443Z,99998.34
2023-05-05T09:31:32.997Z,99993.50
2023-05-05T09:34:04.424Z,100000.28
2023-05-05T09:36:47.873Z,99982.75
2023-05-05T09:39:19.423Z,99959.06
2023-05-05T09:41:47.070Z,99951.94
2023-05-05T09:44:16.311Z,99960.91
2023-05-05T09:46:55.450Z,99968.38
2023-05-05T09:49:26.931Z,99956.97
2023-05-05T09:51:54.396Z,99938.25
2023-05-05T09:54:28.480Z,99953.63
2023-05-05T09:56:56.431Z,99946.09
2023-05-05T09:59:24.202Z,99941.13
2023-05-05T10:01:51.606Z,99941.44
2023-05-05T10:04:31.220Z,99927.94
2023-05-05T10:06:58.888Z,99921.75
2023-05-05T10:09:26.516Z,99932.00
2023-05-05T10:11:53.962Z,99944.69
2023-05-05T10:14:20.947Z,99929.97
2023-05-05T10:16:50.774Z,99921.22
2023-05-05T10:19:28.643Z,99902.16
2023-05-05T10:21:59.959Z,99912.53
2023-05-05T10:25:03.472Z,99913.84
2023-05-05T10:27:35.081Z,99911.09
2023-05-05T10:30:07.633Z,99912.69
2023-05-05T10:35:22.431Z,99882.44
2023-05-05T10:37:49.383Z,99910.72
2023-05-05T10:40:17.813Z,99873.81
2023-05-05T10:42:44.628Z,99899.50
2023-05-05T10:45:11.507Z,99888.63
2023-05-05T10:47:38.413Z,99894.81
2023-05-05T10:50:28.620Z,99898.03
2023-05-05T10:53:13.787Z,99894.47
2023-05-05T10:56:10.920Z,99890.50
2023-05-05T10:58:51.644Z,99891.09
2023-05-05T11:01:35.710Z,99875.53
2023-05-05T11:04:21.903Z,99888.72
2023-05-05T11:07:21.681Z,99882.03
2023-05-05T11:09:59.260Z,99877.94
2023-05-05T11:12:25.994Z,99883.13
2023-05-05T11:15:20.628Z,99897.03
2023-05-05T11:17:47.896Z,99879.94
2023-05-05T11:20:14.639Z,99870.81
2023-05-05T11:23:03.218Z,99871.75
2023-05-05T11:25:43.360Z,99882.84
2023-05-05T11:28:11.300Z,99868.56
2023-05-05T11:30:59.808Z,99867.78
2023-05-05T11:33:31.347Z,99862.88
2023-05-05T11:36:05.984Z,99855.53
2023-05-05T11:38:33.115Z,99859.25
2023-05-05T11:41:11.634Z,99865.09
2023-05-05T11:43:38.983Z,99856.75
2023-05-05T11:46:13.310Z,99851.16
2023-05-05T11:48:50.566Z,99844.56
2023-05-05T11:51:18.477Z,99848.63
2023-05-05T11:53:46.747Z,99835.53
2023-05-05T11:56:19.246Z,99840.66
2023-05-05T11:58:49.887Z,99841.41
2023-05-05T12:01:16.889Z,99836.47
2023-05-05T12:03:45.455Z,99836.63
2023-05-05T12:06:13.191Z,99839.66
2023-05-05T12:08:41.356Z,99848.28
2023-05-05T12:11:10.255Z,99811.72
2023-05-05T12:13:36.976Z,99822.13
2023-05-05T12:16:11.202Z,99832.38
2023-05-05T12:18:38.042Z,99826.09
2023-05-05T12:21:18.380Z,99795.75
2023-05-05T12:23:45.737Z,99800.84
2023-05-05T12:26:28.415Z,99804.56
2023-05-05T12:28:56.066Z,99807.25
2023-05-05T12:31:22.815Z,99807.91
2023-05-05T12:33:50.618Z,99794.72
2023-05-05T12:36:17.491Z,99807.53
2023-05-05T12:38:46.222Z,99773.88
2023-05-05T12:41:18.236Z,99751.47
2023-05-05T12:43:45.056Z,99802.63
2023-05-05T12:46:12.764Z,99805.69
2023-05-05T12:48:41.747Z,99784.44
2023-05-05T12:51:16.445Z,99797.16
2023-05-05T12:53:43.663Z,99785.50
2023-05-05T12:56:30.337Z,99792.53
2023-05-05T12:58:57.460Z,99796.88
2023-05-05T13:01:24.602Z,99792.00
2023-05-05T13:04:06.545Z,99798.88
2023-05-05T13:06:33.566Z,99758.09
2023-05-05T13:09:00.295Z,99780.28
2023-05-05T13:11:27.236Z,99759.34
2023-05-05T13:13:53.960Z,99777.22
2023-05-05T13:16:20.892Z,99780.06
2023-05-05T13:18:48.511Z,99787.38
2023-05-05T13:21:15.325Z,99786.84
2023-05-05T13:23:45.459Z,99790.44
2023-05-05T13:26:12.940Z,99787.69
2023-05-05T13:28:40.452Z,99784.63
2023-05-05T13:31:07.533Z,99784.72
2023-05-05T13:33:35.054Z,99769.44
2023-05-05T13:36:02.746Z,99782.41
2023-05-05T13:38:30.622Z,99782.31
2023-05-05T13:40:57.474Z,99786.16
2023-05-05T13:43:24.067Z,99794.38
2023-05-05T13:45:51.105Z,99785.72
2023-05-05T13:48:17.885Z,99769.31
2023-05-05T13:50:44.673Z,99789.72
2023-05-05T13:53:11.405Z,99777.44
2023-05-05T13:55:38.173Z,99795.75
2023-05-05T13:58:04.938Z,99780.84
2023-05-05T14:00:31.756Z,99771.34
2023-05-05T14:02:58.426Z,99779.66
2023-05-05T14:05:25.153Z,99770.19
2023-05-05T14:07:52.280Z,99754.59
2023-05-05T14:10:19.378Z,99772.03
2023-05-05T14:12:46.226Z,99771.50
2023-05-05T14:15:13.040Z,99765.91
2023-05-05T14:17:39.900Z,99766.03
2023-05-05T14:20:07.285Z,99760.56
2023-05-05T14:22:34.095Z,99769.19
2023-05-05T14:25:00.788Z,99760.06
2023-05-05T14:27:27.561Z,99766.59
2023-05-05T14:29:57.056Z,99781.25
2023-05-05T14:32:24.551Z,99731.41
2023-05-05T14:34:51.325Z,99764.91
2023-05-05T14:37:18.042Z,99759.72
2023-05-05T14:39:44.670Z,99739.47
2023-05-05T14:42:11.374Z,99744.66
2023-05-05T14:44:38.058Z,99735.00
2023-05-05T14:47:04.937Z,99752.56
2023-05-05T14:49:31.873Z,99744.38
2023-05-05T14:51:58.531Z,99727.59
2023-05-05T14:54:28.588Z,99724.16
2023-05-05T14:56:56.119Z,99731.91
2023-05-05T14:59:22.895Z,99739.22
2023-05-05T15:01:49.748Z,99738.88
2023-05-05T15:04:16.572Z,99743.50
2023-05-05T15:06:43.223Z,99754.31
2023-05-05T15:09:09.816Z,99743.66
2023-05-05T15:11:36.539Z,99739.75
2023-05-05T15:14:03.181Z,99759.56
2023-05-05T15:16:30.030Z,99760.75
2023-05-05T15:18:56.867Z,99760.94
2023-05-05T15:21:23.485Z,99752.00
2023-05-05T15:23:50.112Z,99754.44
2023-05-05T15:26:16.757Z,99738.31
2023-05-05T15:28:43.496Z,99749.53
2023-05-05T15:31:10.296Z,99745.91
2023-05-05T15:33:37.579Z,99766.84
2023-05-05T15:36:04.604Z,99754.06
2023-05-05T15:38:31.416Z,99752.56
2023-05-05T15:40:58.184Z,99742.28
2023-05-05T15:43:24.896Z,99752.56
2023-05-05T15:45:54.095Z,99760.56
2023-05-05T15:48:20.827Z,99756.34
2023-05-05T15:50:47.491Z,99759.56
2023-05-05T15:53:14.279Z,99750.53
2023-05-05T15:55:40.991Z,99755.31
2023-05-05T15:58:07.698Z,99741.06
2023-05-05T16:00:34.373Z,99738.72
2023-05-05T16:03:01.513Z,99741.28
2023-05-05T16:05:28.233Z,99735.13
2023-05-05T16:07:54.922Z,99742.97
2023-05-05T16:10:21.736Z,99748.66
2023-05-05T16:12:48.840Z,99752.81
2023-05-05T16:15:15.790Z,99730.72
2023-05-05T16:17:42.559Z,99766.38
2023-05-05T16:20:10.048Z,99761.81
2023-05-05T16:22:37.131Z,99779.03
2023-05-05T16:25:04.010Z,99788.66
2023-05-05T16:27:30.712Z,99745.19
2023-05-05T16:29:59.556Z,99785.34
2023-05-05T16:32:26.483Z,99748.47
2023-05-05T16:34:53.204Z,99762.31
2023-05-05T16:37:19.940Z,99765.13
2023-05-05T16:39:46.623Z,99770.94
2023-05-05T16:42:13.804Z,99771.78
2023-05-05T16:44:40.655Z,99769.16
2023-05-05T16:47:07.367Z,99774.16
2023-05-05T16:49:34.120Z,99793.50
2023-05-05T16:52:00.802Z,99784.53
2023-05-05T16:54:27.447Z,99778.41
2023-05-05T16:56:55.060Z,99792.38
2023-05-05T16:59:21.729Z,99791.78
2023-05-05T17:01:48.452Z,99797.25
2023-05-05T17:04:15.235Z,99802.69
2023-05-05T17:06:41.872Z,99807.00
2023-05-05T17:09:08.527Z,99799.44
2023-05-05T17:11:36.135Z,99775.63
2023-05-05T17:14:02.877Z,99779.19
2023-05-05T17:16:29.652Z,99804.50
2023-05-05T17:18:56.452Z,99807.06
2023-05-05T17:21:27.210Z,99805.03
2023-05-05T17:23:53.947Z,99810.38
2023-05-05T17:26:20.736Z,99820.16
2023-05-05T17:28:47.352Z,99813.88
2023-05-05T17:31:14.536Z,99775.31
2023-05-05T17:33:41.200Z,99820.75
2023-05-05T17:36:08.218Z,99797.59
2023-05-05T17:38:35.012Z,99821.28
2023-05-05T17:41:01.755Z,99791.16
2023-05-05T17:43:28.388Z,99826.69
2023-05-05T17:45:55.130Z,99822.56
2023-05-05T17:48:21.946Z,99817.75
2023-05-05T17:50:48.720Z,99830.13
2023-05-05T17:53:16.228Z,99824.69
2023-05-05T17:55:46.319Z,99823.50
2023-05-05T17:58:13.030Z,99838.47
2023-05-05T18:00:39.855Z,99829.44
2023-05-05T18:03:06.725Z,99835.34
2023-05-05T18:05:36.492Z,99833.22
2023-05-05T18:08:09.812Z,99837.28
2023-05-05T18:10:39.255Z,99843.72
2023-05-05T18:13:34.823Z,99837.44
2023-05-05T18:15:59.925Z,99854.88
2023-05-05T18:18:26.706Z,99837.41
2023-05-05T18:20:53.398Z,99850.56
2023-05-05T18:23:20.228Z,99857.28
2023-05-05T18:25:46.892Z,99849.50
2023-05-05T18:28:13.571Z,99847.53
2023-05-05T18:30:40.256Z,99854.44
2023-05-05T18:33:07.024Z,99852.50
2023-05-05T18:35:34.984Z,99822.75
2023-05-05T18:38:01.668Z,99858.78
2023-05-05T18:40:28.365Z,99866.44
2023-05-05T18:42:55.112Z,99865.00
2023-05-05T18:45:21.901Z,99848.63
2023-05-05T18:47:48.590Z,99865.06
2023-05-05T18:50:15.336Z,99859.63
2023-05-05T18:52:41.997Z,99868.31
2023-05-05T18:55:08.873Z,99871.94
2023-05-05T18:57:35.835Z,99878.91
2023-05-05T19:00:02.546Z,99870.13
2023-05-05T19:02:29.271Z,99870.03
2023-05-05T19:04:56.132Z,99860.91
2023-05-05T19:07:34.422Z,99870.25
2023-05-05T19:10:04.352Z,99892.59
2023-05-05T19:12:35.094Z,99893.66
2023-05-05T19:15:01.960Z,99904.88
2023-05-05T19:17:37.800Z,99909.28
2023-05-05T19:20:04.976Z,99934.56
2023-05-05T19:22:31.890Z,99936.47
2023-05-05T19:24:58.557Z,99941.66
2023-05-05T19:27:36.436Z,99929.47
2023-05-05T19:30:05.008Z,99911.44
2023-05-05T19:32:31.933Z,99916.47
2023-05-05T19:34:58.790Z,99913.00
2023-05-05T19:37:25.588Z,99878.00
2023-05-05T19:39:52.514Z,99889.38
2023-05-05T19:42:19.315Z,99911.72
2023-05-05T19:44:46.106Z,99913.63
2023-05-05T19:47:13.043Z,99927.53
2023-05-05T19:49:40.141Z,99942.84
2023-05-05T19:52:06.879Z,99921.88
2023-05-05T19:54:33.574Z,100000.09
2023-05-05T19:57:00.907Z,100043.97
2023-05-05T19:59:27.738Z,100187.41
2023-05-05T20:01:54.484Z,100311.34
2023-05-05T20:04:21.231Z,100389.63
2023-05-05T20:06:47.984Z,100454.50
2023-05-05T20:09:15.092Z,100458.97
2023-05-05T20:11:41.911Z,100470.72
2023-05-05T20:14:08.779Z,100511.69
2023-05-05T20:16:35.655Z,100577.22
2023-05-05T20:19:02.523Z,100594.09
2023-05-05T20:21:29.211Z,100576.78
2023-05-05T20:23:56.148Z,100554.81
2023-05-05T20:26:24.494Z,100545.88
2023-05-05T20:28:51.328Z,100509.22
2023-05-05T20:31:18.207Z,100515.25
2023-05-05T20:33:44.906Z,100493.34
2023-05-05T20:36:11.729Z,100413.97
2023-05-05T20:38:38.472Z,100402.25
2023-05-05T20:41:05.266Z,100345.63
2023-05-05T20:43:32.248Z,100330.50
2023-05-05T20:45:58.909Z,100283.78
2023-05-05T20:48:25.888Z,100218.78
2023-05-05T20:50:52.580Z,100165.09
2023-05-05T20:53:21.045Z,100199.28
2023-05-05T20:55:47.855Z,100203.94
2023-05-05T20:58:14.526Z,100226.97
2023-05-05T21:00:41.306Z,100209.78
2023-05-05T21:03:08.204Z,100263.19
2023-05-05T21:05:36.083Z,100278.56
2023-05-05T21:08:02.808Z,100287.25
2023-05-05T21:10:29.502Z,100312.22
2023-05-05T21:12:56.450Z,100284.91
2023-05-05T21:15:23.205Z,100343.56
2023-05-05T21:17:49.986Z,100375.22
2023-05-05T21:20:18.701Z,100398.81
2023-05-05T21:22:46.216Z,100427.53
2023-05-05T21:25:16.776Z,100439.84
2023-05-05T21:27:44.002Z,100454.34
2023-05-05T21:30:11.622Z,100472.72
2023-05-05T21:32:39.351Z,100470.94
2023-05-05T21:35:09.288Z,100471.16
2023-05-05T21:37:39.675Z,100476.63
2023-05-05T21:40:11.130Z,100503.78
2023-05-05T21:42:38.074Z,100503.81
2023-05-05T21:45:05.223Z,100508.34
2023-05-05T21:47:31.974Z,100515.63
2023-05-05T21:49:59.128Z,100520.13
2023-05-05T21:52:25.891Z,100527.16
2023-05-05T21:54:52.834Z,100539.41
2023-05-05T21:57:19.646Z,100518.06
2023-05-05T21:59:46.757Z,100550.97
2023-05-05T22:02:13.416Z,100552.81
2023-05-05T22:04:40.234Z,100572.88
2023-05-05T22:07:07.130Z,100588.00
2023-05-05T22:09:34.148Z,100571.56
2023-05-05T22:12:02.666Z,100581.44
2023-05-05T22:14:29.456Z,100589.56
2023-05-05T22:16:56.321Z,100638.78
2023-05-05T22:19:23.053Z,100625.91
2023-05-05T22:21:50.035Z,100645.03
2023-05-05T22:24:16.800Z,100655.50
2023-05-05T22:26:43.607Z,100647.69
2023-05-05T22:29:10.862Z,100666.13
2023-05-05T22:31:37.765Z,100681.88
2023-05-05T22:34:04.627Z,100644.78
2023-05-05T22:36:31.606Z,100693.38
2023-05-05T22:38:58.349Z,100699.56
2023-05-05T22:41:25.126Z,100688.41
2023-05-05T22:43:51.866Z,100702.31
2023-05-05T22:46:18.722Z,100717.22
2023-05-05T22:48:45.504Z,100706.00
2023-05-05T22:51:12.515Z,100712.84
2023-05-05T22:53:39.318Z,100717.31
2023-05-05T22:56:06.441Z,100700.97
2023-05-05T22:58:33.127Z,100721.78
2023-05-05T23:00:59.891Z,100740.91
2023-05-05T23:03:27.042Z,100736.66
2023-05-05T23:05:53.824Z,100756.53
2023-05-05T23:08:21.085Z,100759.31
2023-05-05T23:10:47.989Z,100774.94
2023-05-05T23:13:14.840Z,100756.78
2023-05-05T23:15:41.556Z,100768.88
2023-05-05T23:18:08.433Z,100753.25
2023-05-05T23:20:35.249Z,100760.25
2023-05-05T23:23:02.030Z,100753.50
2023-05-05T23:25:28.746Z,100751.69
2023-05-05T23:27:55.466Z,100751.75
2023-05-05T23:30:22.345Z,100733.78
2023-05-05T23:32:49.034Z,100761.44
2023-05-05T23:35:15.730Z,100771.72
2023-05-05T23:37:42.525Z,100769.16
2023-05-05T23:40:09.459Z,100764.06
2023-05-05T23:42:36.128Z,100785.69
2023-05-05T23:45:03.738Z,100790.06
2023-05-05T23:47:30.513Z,100804.84
2023-05-05T23:49:57.195Z,100801.28
2023-05-05T23:52:23.949Z,100797.94
2023-05-05T23:54:51.053Z,100816.16
2023-05-05T23:57:17.760Z,100819.75
2023-05-05T23:59:44.926Z,100810.22
